Time;durP1;ratioP1;P1;durP2;ratioP2;P2;SDS_P1;SDS_P2;PMS_P1;PMS_P2;Temp;Humidity;BMP_temperature;BMP_pressure;BME280_temperature;BME280_humidity;BME280_pressure;Samples;Min_cycle;Max_cycle;Signal;HPM_P1;HPM_P2
2022/11/08 00:02:58;;;;;;;14.55;4.40;;;7.60;99.90;;;7.66;100.00;100236.97;4866970;29;20227;-75
2022/11/08 00:14:00;;;;;;;22.30;7.05;;;7.60;99.90;;;7.66;100.00;100250.13;4959447;28;20324;-79
2022/11/08 00:16:28;;;;;;;15.05;4.70;;;7.60;99.90;;;7.79;100.00;100264.41;4941321;28;20256;-77
2022/11/08 00:18:56;;;;;;;10.63;3.40;;;7.70;99.90;;;7.80;100.00;100253.03;4940149;28;20236;-80
2022/11/08 00:21:23;;;;;;;18.50;5.80;;;7.80;99.90;;;7.85;100.00;100256.63;4952069;28;20707;-79
2022/11/08 00:23:50;;;;;;;16.55;5.38;;;7.80;99.90;;;7.86;100.00;100261.03;4956072;28;20331;-74
2022/11/08 00:26:17;;;;;;;14.90;4.45;;;7.80;99.90;;;7.85;100.00;100256.63;4942200;28;20296;-80
2022/11/08 00:28:44;;;;;;;17.27;5.43;;;7.80;99.90;;;7.79;100.00;100248.59;4970738;28;20238;-74
2022/11/08 00:31:11;;;;;;;17.73;5.53;;;7.80;99.90;;;7.77;100.00;100249.44;4956157;28;20250;-78
2022/11/08 00:33:38;;;;;;;10.00;3.40;;;7.70;99.90;;;7.66;100.00;100243.97;4940955;28;20233;-74
2022/11/08 00:36:05;;;;;;;15.30;4.47;;;7.60;99.90;;;7.61;100.00;100246.53;4939883;28;20328;-76
2022/11/08 00:38:32;;;;;;;17.27;5.68;;;7.60;99.90;;;7.69;100.00;100249.31;4957224;28;20680;-75
2022/11/08 00:40:59;;;;;;;16.02;4.97;;;7.60;99.90;;;7.64;100.00;100243.97;4938147;28;20323;-77
2022/11/08 00:43:26;;;;;;;20.73;5.88;;;7.60;99.90;;;7.52;100.00;100227.94;4975893;28;20252;-78
2022/11/08 00:45:53;;;;;;;13.90;3.88;;;7.50;99.90;;;7.47;100.00;100224.34;4940857;28;20240;-74
2022/11/08 00:48:20;;;;;;;11.95;3.97;;;7.40;99.90;;;7.26;100.00;100218.69;4962846;28;20319;-75
2022/11/08 00:50:47;;;;;;;16.75;5.75;;;7.30;99.90;;;7.11;100.00;100206.16;4939810;28;20240;-75
2022/11/08 00:53:14;;;;;;;15.32;4.63;;;7.10;99.90;;;7.04;100.00;100201.63;4956264;28;20349;-75
2022/11/08 00:55:41;;;;;;;16.55;5.25;;;7.10;99.90;;;7.01;100.00;100197.19;4940930;28;20307;-79
2022/11/08 00:58:08;;;;;;;15.77;4.88;;;7.00;99.90;;;7.17;100.00;100211.53;4940977;28;20325;-79
2022/11/08 01:00:36;;;;;;;20.08;5.75;;;7.10;99.90;;;6.82;100.00;100192.44;4942186;28;20252;-75
2022/11/08 01:03:18;;;;;;;12.65;4.30;;;6.90;99.90;;;6.91;100.00;100208.38;4957059;28;20232;-78
2022/11/08 01:05:47;;;;;;;14.60;4.30;;;6.90;99.90;;;6.96;100.00;100212.00;4952506;28;20227;-75
2022/11/08 01:08:15;;;;;;;17.35;5.70;;;6.90;99.90;;;7.02;100.00;100208.59;4954481;28;20315;-75
2022/11/08 01:10:46;;;;;;;15.88;5.00;;;6.90;99.90;;;7.17;100.00;100222.03;4942030;28;20319;-77
2022/11/08 01:13:13;;;;;;;20.23;5.55;;;7.00;99.90;;;6.71;100.00;100184.31;4957964;28;20252;-74
2022/11/08 01:15:43;;;;;;;15.70;4.68;;;6.90;99.90;;;6.71;100.00;100184.31;4954892;28;20731;-75
2022/11/08 01:18:12;;;;;;;17.08;5.22;;;6.70;99.90;;;6.85;100.00;100203.00;4941607;28;20259;-75
2022/11/08 01:20:44;;;;;;;18.83;5.80;;;6.80;99.90;;;6.89;100.00;100196.94;4953724;28;20232;-75
2022/11/08 01:23:12;;;;;;;15.57;4.78;;;6.80;99.90;;;6.66;100.00;100171.94;4939087;28;20224;-76
2022/11/08 01:25:43;;;;;;;18.27;5.50;;;6.70;99.90;;;6.58;100.00;100163.91;4953826;28;20240;-75
2022/11/08 01:28:11;;;;;;;16.35;5.07;;;6.60;99.90;;;6.49;100.00;100162.81;4939760;28;20287;-75
2022/11/08 01:30:41;;;;;;;15.63;5.10;;;6.50;99.90;;;6.39;100.00;100165.22;4939778;28;20277;-75
2022/11/08 01:33:09;;;;;;;15.85;4.78;;;6.40;99.90;;;6.36;100.00;100157.28;4939706;28;20233;-75
2022/11/08 01:35:36;;;;;;;16.27;4.80;;;6.40;99.90;;;6.47;100.00;100162.78;4942171;28;22650;-75
2022/11/08 01:38:05;;;;;;;20.63;6.25;;;6.40;99.90;;;6.50;100.00;100167.19;4935116;28;20319;-78
2022/11/08 01:40:33;;;;;;;13.68;3.88;;;6.50;99.90;;;6.63;100.00;100175.41;4957211;28;20400;-78
2022/11/08 01:43:28;;;;;;;15.65;4.65;;;6.50;99.90;;;6.31;100.00;100153.69;4979110;28;20235;-77
2022/11/08 01:46:17;;;;;;;16.13;4.70;;;6.40;99.90;;;6.36;100.00;100156.41;4960341;28;20220;-77
2022/11/08 01:48:55;;;;;;;15.55;4.82;;;6.30;99.90;;;6.35;100.00;100160.78;4974795;28;20256;-75
2022/11/08 01:51:30;;;;;;;15.25;4.45;;;6.30;99.90;;;6.23;100.00;100152.63;4978237;28;20220;-79
2022/11/08 01:54:03;;;;;;;14.80;4.03;;;6.20;99.90;;;6.31;100.00;100164.19;4965804;28;20224;-77
2022/11/08 01:56:30;;;;;;;26.52;7.78;;;6.30;99.90;;;6.30;100.00;100154.53;4977865;28;20228;-75
2022/11/08 01:59:00;;;;;;;19.45;6.60;;;6.30;99.90;;;6.29;100.00;100162.38;4952033;28;20228;-75
2022/11/08 02:01:27;;;;;;;16.88;4.88;;;6.30;99.90;;;6.22;100.00;100157.84;4944908;28;20236;-77
2022/11/08 02:03:54;;;;;;;18.58;5.70;;;6.20;99.90;;;6.30;100.00;100161.53;4942634;28;20231;-76
2022/11/08 02:06:22;;;;;;;17.20;5.22;;;6.20;99.90;;;6.30;100.00;100166.78;4961438;28;20233;-77
2022/11/08 02:08:49;;;;;;;24.90;7.47;;;6.20;99.90;;;6.27;100.00;100167.59;4940637;28;20239;-75
2022/11/08 02:11:17;;;;;;;17.52;5.32;;;6.20;99.90;;;6.34;100.00;100174.75;4956848;28;20302;-77
2022/11/08 02:13:44;;;;;;;16.92;4.93;;;6.30;99.90;;;6.32;100.00;100168.59;4976861;28;20252;-76
2022/11/08 02:16:14;;;;;;;15.77;4.53;;;6.30;99.90;;;6.32;100.00;100175.56;4941420;28;20238;-75
2022/11/08 02:18:43;;;;;;;18.08;5.47;;;6.30;99.90;;;6.35;100.00;100167.75;4941102;28;20236;-75
2022/11/08 02:21:21;;;;;;;19.27;5.30;;;6.30;99.90;;;6.28;100.00;100161.50;4943946;28;20243;-77
2022/11/08 02:23:53;;;;;;;15.55;4.80;;;6.50;99.90;;;5.86;100.00;100142.13;4975595;28;20301;-75
2022/11/08 02:26:33;;;;;;;14.98;4.60;;;5.90;99.90;;;6.10;100.00;100169.84;4958246;28;20227;-74
2022/11/08 02:29:34;;;;;;;12.00;4.20;;;6.00;99.90;;;6.15;100.00;100169.94;4939242;28;20231;-75
2022/11/08 02:32:03;;;;;;;15.57;4.70;;;6.10;99.90;;;5.88;100.00;100153.53;4977659;28;20319;-75
2022/11/08 02:34:48;;;;;;;16.13;4.80;;;5.90;99.90;;;5.87;100.00;100152.66;4940699;28;20303;-75
2022/11/08 02:37:19;;;;;;;16.80;4.68;;;5.80;99.90;;;5.93;100.00;100160.69;4959952;28;20232;-75
2022/11/08 02:39:46;;;;;;;23.98;6.90;;;5.90;99.90;;;6.00;100.00;100159.09;4939303;28;20621;-75
2022/11/08 02:42:17;;;;;;;17.15;4.97;;;5.90;99.90;;;6.09;100.00;100172.44;4950561;28;20711;-74
2022/11/08 02:44:46;;;;;;;15.02;4.75;;;6.00;99.90;;;5.86;100.00;100147.38;4958133;28;20236;-77
2022/11/08 02:47:13;;;;;;;18.80;5.60;;;5.90;99.90;;;5.79;100.00;100143.72;4955384;28;20290;-78
2022/11/08 02:49:40;;;;;;;19.92;6.35;;;5.80;99.90;;;5.64;100.00;100141.63;4933768;28;20238;-75
2022/11/08 02:52:07;;;;;;;17.58;5.03;;;5.70;99.90;;;5.71;100.00;100161.00;4959221;28;20300;-76
2022/11/08 02:54:34;;;;;;;15.98;4.93;;;5.70;99.90;;;5.75;100.00;100169.00;4941251;28;20270;-74
2022/11/08 02:57:01;;;;;;;18.40;5.57;;;5.70;99.90;;;5.78;100.00;100158.56;4944479;28;20259;-75
2022/11/08 02:59:28;;;;;;;18.27;5.43;;;5.70;99.90;;;5.74;100.00;100156.72;4943844;28;20296;-75
2022/11/08 03:01:56;;;;;;;16.20;4.47;;;5.70;99.90;;;5.67;100.00;100154.81;4957315;28;20303;-77
2022/11/08 03:04:23;;;;;;;17.67;5.55;;;5.70;99.90;;;5.68;100.00;100146.09;4956219;28;20228;-75
2022/11/08 03:06:50;;;;;;;18.85;5.90;;;5.70;99.90;;;5.67;100.00;100144.31;4944612;28;20306;-77
2022/11/08 03:09:17;;;;;;;26.40;7.50;;;5.60;99.90;;;5.69;100.00;100147.84;4961391;28;20677;-77
2022/11/08 03:11:44;;;;;;;18.52;6.07;;;5.70;99.90;;;5.49;100.00;100130.75;4939644;28;20740;-77
2022/11/08 03:14:11;;;;;;;19.35;6.50;;;5.60;99.90;;;5.47;100.00;100142.94;4953180;28;20228;-75
2022/11/08 03:16:38;;;;;;;15.90;4.35;;;5.50;99.90;;;5.41;100.00;100140.16;4938897;28;20272;-75
2022/11/08 03:19:05;;;;;;;18.73;5.18;;;5.40;99.90;;;5.60;100.00;100159.88;4943129;28;20286;-77
2022/11/08 03:21:35;;;;;;;26.10;7.82;;;5.50;99.90;;;5.72;100.00;100168.91;4943772;28;20319;-74
2022/11/08 03:24:04;;;;;;;18.58;5.15;;;5.60;99.90;;;5.87;100.00;100178.00;4954032;28;20268;-75
2022/11/08 03:26:31;;;;;;;18.25;5.30;;;5.80;99.90;;;5.83;100.00;100171.81;4943097;28;20264;-75
2022/11/08 03:28:58;;;;;;;15.57;4.55;;;5.80;99.90;;;5.81;100.00;100170.88;4943712;28;20233;-74
2022/11/08 03:31:26;;;;;;;16.60;4.85;;;5.80;99.90;;;5.74;100.00;100161.97;4945421;28;20236;-75
2022/11/08 03:33:53;;;;;;;19.70;5.80;;;5.70;99.90;;;5.28;100.00;100128.50;4939529;28;20252;-74
2022/11/08 03:36:20;;;;;;;23.13;7.00;;;5.50;99.90;;;5.43;100.00;100144.59;4934402;28;20229;-75
2022/11/08 03:38:47;;;;;;;30.00;8.52;;;5.40;99.90;;;5.64;100.00;100159.97;4935250;28;20448;-75
2022/11/08 03:41:14;;;;;;;17.77;4.88;;;5.50;99.90;;;5.57;100.00;100155.44;4938178;28;20307;-74
2022/11/08 03:43:41;;;;;;;21.33;7.22;;;5.60;99.90;;;5.54;100.00;100155.34;4943741;28;20316;-75
2022/11/08 03:46:07;;;;;;;15.27;4.22;;;5.50;99.90;;;5.53;100.00;100150.97;4963106;28;20280;-74
2022/11/08 03:48:34;;;;;;;18.27;4.88;;;5.50;99.90;;;5.56;100.00;100144.91;4974428;28;20233;-75
2022/11/08 03:51:01;;;;;;;26.20;7.13;;;5.50;99.90;;;5.58;100.00;100148.44;4978939;28;20321;-74
2022/11/08 03:53:28;;;;;;;13.95;3.92;;;5.50;99.90;;;5.33;100.00;100129.50;4976890;28;20233;-74
2022/11/08 03:55:59;;;;;;;17.73;4.93;;;5.40;99.90;;;5.19;100.00;100122.97;4951860;28;20256;-74
2022/11/08 03:58:26;;;;;;;12.45;3.53;;;5.30;99.90;;;5.15;100.00;100127.25;4950679;28;20333;-74
2022/11/08 04:00:53;;;;;;;11.43;3.28;;;5.20;99.90;;;5.24;100.00;100144.09;4950437;28;20256;-74
2022/11/08 04:03:20;;;;;;;13.50;3.80;;;5.20;99.90;;;5.11;100.00;100125.41;4948673;28;20228;-74
2022/11/08 04:05:47;;;;;;;14.55;4.03;;;5.20;99.90;;;5.36;100.00;100147.91;4971554;28;20294;-74
2022/11/08 04:08:14;;;;;;;17.33;4.60;;;5.30;99.90;;;5.33;100.00;100150.47;4965999;28;20233;-75
2022/11/08 04:10:41;;;;;;;14.75;3.95;;;5.40;99.90;;;5.25;100.00;100138.91;4969035;28;20302;-73
2022/11/08 04:15:55;;;;;;;17.45;4.82;;;5.30;99.90;;;5.50;100.00;100171.88;4989146;28;20275;-74
2022/11/08 04:21:20;;;;;;;15.85;4.28;;;5.50;99.90;;;5.49;100.00;100169.22;4971801;28;20228;-74
2022/11/08 04:23:50;;;;;;;11.05;3.08;;;5.50;99.90;;;5.45;100.00;100166.50;4987709;28;20282;-74
2022/11/08 04:26:18;;;;;;;15.75;4.10;;;5.50;99.90;;;5.58;100.00;100179.94;4968580;28;20259;-74
2022/11/08 04:28:45;;;;;;;14.45;3.83;;;5.50;99.90;;;5.56;100.00;100176.38;4964419;28;20252;-74
2022/11/08 04:31:16;;;;;;;16.70;4.50;;;5.60;99.90;;;5.60;100.00;100171.25;4970859;28;20259;-74
2022/11/08 04:33:44;;;;;;;15.52;4.13;;;5.60;99.90;;;5.58;100.00;100170.31;4969196;28;20632;-74
2022/11/08 04:36:14;;;;;;;18.30;5.38;;;5.50;99.90;;;5.65;100.00;100180.13;4982954;28;20319;-74
2022/11/08 04:38:41;;;;;;;17.92;4.70;;;5.60;99.90;;;5.62;100.00;100179.16;4965042;28;20308;-74
2022/11/08 04:41:13;;;;;;;16.92;4.88;;;5.60;99.90;;;5.68;100.00;100184.56;4981520;28;20319;-75
2022/11/08 04:43:41;;;;;;;15.57;4.22;;;5.70;99.90;;;5.79;100.00;100191.84;4945955;28;20623;-75
2022/11/08 04:46:14;;;;;;;16.35;4.35;;;5.80;99.90;;;5.79;100.00;100177.81;4967100;28;20742;-74
2022/11/08 04:48:43;;;;;;;18.67;5.03;;;5.80;99.90;;;5.82;100.00;100177.00;4965493;28;20233;-74
2022/11/08 04:51:34;;;;;;;16.95;4.55;;;5.80;99.90;;;5.84;100.00;100176.19;4963335;28;20252;-74
2022/11/08 04:54:03;;;;;;;17.23;4.60;;;5.80;99.90;;;5.84;100.00;100160.44;4969454;28;20288;-74
2022/11/08 04:56:31;;;;;;;18.15;4.78;;;5.80;99.90;;;5.81;100.00;100159.50;4984922;28;20756;-74
2022/11/08 04:58:59;;;;;;;16.65;4.35;;;5.80;99.90;;;5.72;100.00;100161.06;4942736;28;20311;-74
2022/11/08 05:01:30;;;;;;;20.60;5.93;;;5.70;99.90;;;5.75;100.00;100155.88;4960325;28;20248;-73
2022/11/08 05:03:58;;;;;;;18.98;5.47;;;5.80;99.90;;;5.74;100.00;100156.72;4972607;28;20236;-74
2022/11/08 05:06:30;;;;;;;17.67;5.32;;;5.80;99.90;;;5.76;100.00;100154.13;4971027;28;20319;-73
2022/11/08 05:08:59;;;;;;;17.17;5.15;;;5.80;99.90;;;5.71;100.00;100135.66;4957129;28;20704;-74
2022/11/08 05:11:29;;;;;;;19.35;7.15;;;5.70;99.90;;;5.69;100.00;100132.13;4931358;28;20238;-73
2022/11/08 05:13:56;;;;;;;16.25;5.05;;;5.70;99.90;;;5.73;100.00;100140.94;4941588;28;20364;-74
2022/11/08 05:16:29;;;;;;;17.75;5.45;;;5.70;99.90;;;5.68;100.00;100132.09;4950151;28;20832;-74
2022/11/08 05:18:57;;;;;;;25.45;7.78;;;5.70;99.90;;;5.56;100.00;100118.69;4956172;28;20638;-73
2022/11/08 05:24:14;;;;;;;13.90;3.80;;;5.60;99.90;;;5.51;100.00;100120.31;4960935;28;20229;-73
2022/11/08 05:26:45;;;;;;;20.63;5.00;;;5.60;99.90;;;5.42;100.00;100116.59;4956892;28;20236;-73
2022/11/08 05:29:14;;;;;;;22.52;6.32;;;5.50;99.90;;;5.41;100.00;100116.56;4949062;28;20232;-73
2022/11/08 05:31:41;;;;;;;14.60;4.13;;;5.40;99.90;;;5.41;100.00;100112.22;4962113;28;20308;-73
2022/11/08 05:34:08;;;;;;;12.43;4.10;;;5.50;99.90;;;5.41;100.00;100124.44;4978242;28;20311;-73
2022/11/08 05:36:35;;;;;;;16.23;4.63;;;5.50;99.90;;;5.33;100.00;100115.50;4963551;28;20296;-74
2022/11/08 05:39:02;;;;;;;15.38;4.30;;;5.40;99.90;;;5.36;100.00;100113.84;4982670;28;20256;-74
2022/11/08 05:41:30;;;;;;;14.55;4.18;;;5.40;99.90;;;5.33;100.00;100116.38;4958733;28;20219;-74
2022/11/08 05:43:57;;;;;;;16.25;4.32;;;5.40;99.90;;;5.31;100.00;100118.06;4978626;28;20286;-74
2022/11/08 05:46:24;;;;;;;29.00;8.02;;;5.40;99.90;;;5.34;100.00;100118.16;4976509;28;20319;-74
2022/11/08 05:48:52;;;;;;;19.38;5.40;;;5.30;99.90;;;5.35;100.00;100114.69;4950077;28;20240;-74
2022/11/08 05:51:19;;;;;;;18.52;5.60;;;5.40;99.90;;;5.29;100.00;100104.03;4958446;28;20223;-74
2022/11/08 05:53:47;;;;;;;14.52;4.07;;;5.30;99.90;;;5.28;100.00;100096.13;4958902;28;20292;-73
2022/11/08 05:56:16;;;;;;;14.32;3.83;;;5.30;99.90;;;5.24;100.00;100092.56;4956135;28;20719;-73
2022/11/08 05:58:44;;;;;;;9.02;2.58;;;5.30;99.90;;;5.03;100.00;100082.38;4958362;28;20232;-73
2022/11/08 06:01:17;;;;;;;7.55;2.13;;;5.20;99.90;;;5.05;100.00;100088.56;4980640;28;20349;-73
2022/11/08 06:03:44;;;;;;;19.23;5.22;;;5.10;99.90;;;5.04;100.00;100092.03;4945413;28;20252;-73
2022/11/08 06:06:18;;;;;;;13.90;3.72;;;5.10;99.90;;;4.93;100.00;100090.88;4987249;28;20242;-74
2022/11/08 06:08:46;;;;;;;14.52;3.92;;;5.00;99.90;;;5.09;100.00;100103.50;4967417;28;20766;-73
2022/11/08 06:11:20;;;;;;;15.63;4.15;;;5.10;99.90;;;5.15;100.00;100101.03;4970903;28;20758;-73
2022/11/08 06:13:48;;;;;;;16.65;4.70;;;5.20;99.90;;;5.18;100.00;100118.59;4967303;28;20225;-73
2022/11/08 06:16:17;;;;;;;16.95;5.13;;;5.20;99.90;;;5.22;100.00;100123.09;4975307;28;20248;-73
2022/11/08 06:18:44;;;;;;;8.50;2.50;;;5.20;99.90;;;5.25;100.00;100133.66;4945305;28;20235;-73
2022/11/08 06:21:15;;;;;;;23.15;6.20;;;5.30;99.90;;;5.25;100.00;100133.66;4970325;28;20897;-73
2022/11/08 06:23:42;;;;;;;16.40;5.18;;;5.30;99.90;;;5.29;100.00;100135.50;4964471;28;20247;-73
2022/11/08 06:26:10;;;;;;;14.52;3.92;;;5.30;99.90;;;5.34;100.00;100138.25;4941420;28;20312;-73
2022/11/08 06:28:37;;;;;;;16.95;4.70;;;5.30;99.90;;;5.34;100.00;100136.50;4983475;28;20332;-74
2022/11/08 06:31:04;;;;;;;19.88;5.90;;;5.40;99.90;;;5.38;100.00;100135.75;4950904;28;20236;-73
2022/11/08 06:33:35;;;;;;;12.88;3.83;;;5.40;99.90;;;5.41;100.00;100140.16;4937781;28;20236;-73
2022/11/08 06:36:06;;;;;;;15.40;4.22;;;5.50;99.90;;;5.43;100.00;100141.97;4945214;28;20233;-73
2022/11/08 06:38:33;;;;;;;19.80;5.18;;;5.50;99.90;;;5.45;100.00;100147.25;4977851;28;20274;-73
2022/11/08 06:41:01;;;;;;;16.08;4.38;;;5.50;99.90;;;5.46;100.00;100147.31;4948640;28;20327;-73
2022/11/08 06:43:28;;;;;;;21.63;5.80;;;5.50;99.90;;;5.45;100.00;100147.25;4963444;28;20291;-73
2022/11/08 06:46:01;;;;;;;8.20;2.35;;;5.50;99.90;;;5.46;100.00;100152.53;4952493;28;20228;-73
2022/11/08 06:48:28;;;;;;;14.45;3.95;;;5.50;99.90;;;5.40;100.00;100154.13;4981921;28;20271;-73
2022/11/08 06:51:02;;;;;;;15.77;4.22;;;5.40;99.90;;;5.40;100.00;100156.75;4948103;28;20232;-73
2022/11/08 06:53:30;;;;;;;14.20;3.92;;;5.40;99.90;;;5.43;100.00;100155.09;4952556;28;20320;-73
2022/11/08 06:56:01;;;;;;;15.38;4.28;;;5.40;99.90;;;5.45;100.00;100163.88;4970485;28;20227;-73
2022/11/08 06:58:29;;;;;;;10.85;3.22;;;5.50;99.90;;;5.40;100.00;100159.38;4987011;28;20260;-73
2022/11/08 07:00:56;;;;;;;14.00;4.25;;;5.40;99.90;;;5.42;100.00;100162.91;4967328;28;20228;-73
2022/11/08 07:03:23;;;;;;;16.77;4.72;;;5.40;99.90;;;5.48;100.00;100168.31;4947489;28;20300;-73
2022/11/08 07:05:50;;;;;;;14.13;3.92;;;5.50;99.90;;;5.50;100.00;100169.25;4966588;28;20307;-73
2022/11/08 07:08:18;;;;;;;14.57;3.97;;;5.50;99.90;;;5.54;100.00;100160.59;4966855;28;20324;-74
2022/11/08 07:10:50;;;;;;;14.77;4.00;;;5.60;99.90;;;5.59;100.00;100172.09;4976722;28;20237;-73
2022/11/08 07:13:17;;;;;;;15.35;4.20;;;5.60;99.90;;;5.64;100.00;100173.09;4959897;28;20248;-75
2022/11/08 07:15:46;;;;;;;15.40;4.22;;;5.70;99.90;;;5.77;100.00;100176.91;4984799;28;20244;-73
2022/11/08 07:18:15;;;;;;;14.25;3.88;;;5.80;99.90;;;5.86;100.00;100186.72;4989314;28;20256;-73
2022/11/08 07:20:42;;;;;;;14.75;3.92;;;5.80;99.90;;;5.92;100.00;100195.66;4953795;28;20237;-73
2022/11/08 07:23:10;;;;;;;9.02;2.53;;;5.90;99.90;;;5.97;100.00;100187.91;4968628;28;20232;-73
2022/11/08 07:25:38;;;;;;;15.10;4.72;;;5.90;99.90;;;6.04;100.00;100200.31;4981677;28;20270;-73
2022/11/08 07:28:14;;;;;;;14.15;3.83;;;6.00;99.90;;;6.14;100.00;100207.56;4971594;28;20331;-73
2022/11/08 07:30:41;;;;;;;14.80;4.15;;;6.10;99.90;;;6.17;100.00;100201.50;4971939;28;20228;-73
2022/11/08 07:33:08;;;;;;;15.05;4.63;;;6.20;99.90;;;6.26;100.00;100214.81;4968008;28;20233;-73
2022/11/08 07:35:35;;;;;;;11.75;3.17;;;6.20;99.90;;;6.36;100.00;100222.06;4982867;28;20254;-73
2022/11/08 07:38:02;;;;;;;15.27;4.20;;;6.30;99.90;;;6.38;100.00;100218.63;4986451;28;20263;-73
2022/11/08 07:40:29;;;;;;;13.57;3.88;;;6.40;99.90;;;6.43;100.00;100224.84;4970847;28;20291;-73
2022/11/08 07:42:59;;;;;;;14.10;3.92;;;6.40;99.90;;;6.54;100.00;100233.00;4944497;28;20728;-73
2022/11/08 07:45:42;;;;;;;12.77;4.07;;;6.50;99.90;;;6.56;100.00;100227.78;4970498;28;20227;-73
2022/11/08 07:48:11;;;;;;;14.50;4.00;;;6.60;99.90;;;6.58;100.00;100229.59;4964703;28;20236;-73
2022/11/08 07:50:42;;;;;;;13.88;4.18;;;6.60;99.90;;;6.63;100.00;100232.31;4952408;28;20237;-73
2022/11/08 07:53:09;;;;;;;20.45;5.57;;;6.80;99.90;;;6.70;100.00;100235.13;4963406;28;20287;-73
2022/11/08 07:55:38;;;;;;;13.88;4.07;;;6.70;99.90;;;6.76;100.00;100244.88;4981923;28;20243;-73
2022/11/08 07:58:07;;;;;;;14.52;3.95;;;6.70;99.90;;;6.80;100.00;100243.19;4944295;28;20264;-74
2022/11/08 08:00:36;;;;;;;15.00;5.18;;;6.80;99.90;;;6.86;100.00;100259.97;4963797;28;20723;-73
2022/11/08 08:03:06;;;;;;;13.80;4.25;;;6.80;99.90;;;6.86;100.00;100261.72;4946555;28;20234;-73
2022/11/08 08:05:38;;;;;;;14.40;4.10;;;6.90;99.90;;;6.91;100.00;100263.59;4951779;28;20255;-73
2022/11/08 08:08:06;;;;;;;13.90;3.95;;;6.90;99.90;;;6.94;100.00;100268.03;4953933;28;20238;-73
2022/11/08 08:10:34;;;;;;;14.35;4.00;;;7.00;99.90;;;6.99;100.00;100264.63;4950749;28;20252;-73
2022/11/08 08:13:02;;;;;;;9.10;2.67;;;7.00;99.90;;;7.05;100.00;100266.50;4968694;28;20640;-73
2022/11/08 08:15:29;;;;;;;13.82;3.88;;;7.00;99.90;;;7.03;100.00;100260.31;4969095;28;20314;-73
2022/11/08 08:18:00;;;;;;;15.68;4.72;;;7.00;99.90;;;7.04;100.00;100259.47;4949117;28;20708;-74
2022/11/08 08:20:28;;;;;;;20.63;5.95;;;7.00;99.90;;;7.11;100.00;100274.50;4946714;28;20251;-73
2022/11/08 08:22:56;;;;;;;16.25;4.45;;;7.10;99.90;;;7.14;100.00;100271.06;4942780;28;20254;-73
2022/11/08 08:25:23;;;;;;;15.52;4.35;;;7.10;99.90;;;7.21;100.00;100273.84;4960128;28;20323;-73
2022/11/08 08:27:53;;;;;;;13.32;3.78;;;7.20;99.90;;;7.27;100.00;100286.22;4947759;28;20256;-73
2022/11/08 08:30:22;;;;;;;9.43;2.72;;;7.20;99.90;;;7.35;100.00;100293.41;4965579;28;20249;-74
2022/11/08 08:32:51;;;;;;;19.48;5.43;;;7.30;99.90;;;7.38;100.00;100292.59;4950931;28;20232;-73
2022/11/08 08:35:39;;;;;;;15.55;5.03;;;7.40;99.90;;;7.42;100.00;100301.44;4954050;28;20243;-74
2022/11/08 08:38:06;;;;;;;14.07;3.95;;;7.40;99.90;;;7.48;100.00;100305.06;4983365;28;20234;-73
2022/11/08 08:40:33;;;;;;;16.75;5.03;;;7.50;99.90;;;7.52;100.00;100313.91;4952755;28;20315;-73
2022/11/08 08:43:02;;;;;;;16.80;4.93;;;7.40;99.90;;;7.66;100.00;100318.56;4944774;28;20307;-73
2022/11/08 08:45:33;;;;;;;15.10;4.35;;;7.60;99.90;;;7.61;100.00;100311.44;4942851;28;20232;-73
2022/11/08 08:48:01;;;;;;;16.17;5.15;;;7.70;99.90;;;7.67;100.00;100314.19;4971909;28;20279;-73
2022/11/08 08:50:31;;;;;;;26.45;7.55;;;7.70;99.90;;;7.68;100.00;100318.59;4978849;28;20327;-73
2022/11/08 08:53:00;;;;;;;17.35;5.78;;;7.70;99.90;;;7.66;100.00;100318.56;4937988;28;20312;-73
2022/11/08 08:55:27;;;;;;;11.13;3.15;;;7.70;99.90;;;7.63;100.00;100325.50;4981461;28;20248;-73
2022/11/08 08:57:55;;;;;;;15.23;4.28;;;7.70;99.90;;;7.64;100.00;100324.66;4946866;28;20247;-74
2022/11/08 09:00:22;;;;;;;13.90;3.95;;;7.70;99.90;;;7.56;100.00;100321.88;4947226;28;20302;-73
2022/11/08 09:03:10;;;;;;;15.32;4.80;;;7.60;99.90;;;7.50;100.00;100310.34;4947398;28;20232;-74
2022/11/08 09:05:45;;;;;;;15.50;4.47;;;7.50;99.90;;;7.48;100.00;100312.94;4965876;28;20618;-73
2022/11/08 09:08:13;;;;;;;23.58;6.47;;;7.50;99.90;;;7.49;100.00;100320.00;4956915;28;20335;-73
2022/11/08 09:10:41;;;;;;;9.52;2.80;;;7.50;99.90;;;7.55;100.00;100321.84;4947338;28;20290;-74
2022/11/08 09:13:09;;;;;;;13.20;3.83;;;7.50;99.90;;;7.64;100.00;100320.28;4951904;28;20283;-74
2022/11/08 09:15:38;;;;;;;14.95;4.55;;;7.60;99.90;;;7.67;100.00;100320.34;4971485;28;20232;-74
2022/11/08 09:18:05;;;;;;;14.32;4.05;;;7.70;99.90;;;7.82;100.00;100338.19;4962873;28;20228;-73
2022/11/08 09:20:34;;;;;;;15.30;4.38;;;7.70;99.90;;;7.96;100.00;100341.09;4947044;28;20221;-73
2022/11/08 09:23:02;;;;;;;15.43;4.35;;;7.90;99.90;;;8.02;100.00;100344.72;4989029;28;20225;-74
2022/11/08 09:25:30;;;;;;;10.73;3.22;;;8.00;99.90;;;8.25;100.00;100360.03;4959282;28;20614;-74
2022/11/08 09:27:57;;;;;;;14.45;4.10;;;8.20;99.90;;;8.46;100.00;100367.44;4952483;28;20228;-73
2022/11/08 09:30:25;;;;;;;16.20;4.85;;;8.40;99.90;;;8.46;100.00;100364.81;4981953;28;20647;-73
2022/11/08 09:32:52;;;;;;;14.52;4.35;;;8.40;99.90;;;8.56;100.00;100362.34;4979527;28;20311;-73
2022/11/08 09:35:29;;;;;;;15.07;4.28;;;8.50;99.90;;;8.39;100.00;100334.81;4978539;28;20306;-73
2022/11/08 09:37:57;;;;;;;13.75;4.18;;;8.40;99.90;;;8.45;100.00;100339.31;4960963;28;20596;-74
2022/11/08 09:40:39;;;;;;;13.20;3.88;;;8.40;99.90;;;8.38;100.00;100340.06;4940916;28;20772;-74
2022/11/08 09:43:43;;;;;;;17.70;5.18;;;8.40;99.90;;;8.42;100.00;100340.16;4949988;28;20236;-74
2022/11/08 09:46:17;;;;;;;12.93;3.70;;;8.40;99.90;;;8.44;100.00;100342.81;4951085;28;20252;-74
2022/11/08 09:48:44;;;;;;;12.25;3.75;;;8.40;99.90;;;8.53;100.00;100348.22;4964094;28;20236;-74
2022/11/08 09:51:19;;;;;;;12.55;3.67;;;8.50;99.90;;;8.64;100.00;100365.09;4963765;28;20251;-74
2022/11/08 09:53:57;;;;;;;9.85;3.05;;;8.60;99.90;;;8.96;100.00;100369.09;4958282;28;20351;-73
2022/11/08 09:56:29;;;;;;;9.57;3.03;;;8.80;99.90;;;9.17;100.00;100380.84;4961152;28;20239;-74
2022/11/08 09:59:19;;;;;;;12.65;3.83;;;9.00;99.90;;;9.19;100.00;100366.81;4966228;28;20312;-74
2022/11/08 10:01:48;;;;;;;15.25;4.43;;;9.20;99.90;;;9.39;100.00;100379.38;4970188;28;20316;-74
2022/11/08 10:04:26;;;;;;;14.23;4.20;;;9.30;99.90;;;9.45;100.00;100379.47;4967566;28;20677;-75
2022/11/08 10:07:28;;;;;;;14.02;4.15;;;9.40;99.90;;;9.55;100.00;100363.75;4971796;28;20302;-74
2022/11/08 10:10:28;;;;;;;15.68;5.25;;;9.50;99.90;;;9.78;100.00;100378.97;4986035;28;20367;-73
2022/11/08 10:13:40;;;;;;;18.70;5.22;;;9.60;99.90;;;10.02;100.00;100379.22;4958170;28;20262;-76
2022/11/08 10:16:46;;;;;;;14.40;4.15;;;9.90;99.90;;;9.77;100.00;100362.25;4985956;28;20251;-74
2022/11/08 10:19:47;;;;;;;16.17;4.75;;;9.80;99.90;;;9.85;100.00;100359.69;4981995;28;20233;-75
2022/11/08 10:22:30;;;;;;;12.98;3.83;;;9.80;99.90;;;10.30;100.00;100380.41;4982803;28;20286;-74
2022/11/08 10:25:01;;;;;;;15.30;4.28;;;10.10;99.90;;;10.60;100.00;100387.75;4981162;28;20311;-73
2022/11/08 10:27:41;;;;;;;12.75;3.78;;;10.40;99.90;;;10.74;100.00;100383.47;4980907;28;20237;-73
2022/11/08 10:30:48;;;;;;;13.38;4.18;;;10.60;99.90;;;10.94;100.00;100386.25;4948212;28;20247;-74
2022/11/08 10:33:29;;;;;;;12.00;4.05;;;10.60;99.90;;;10.84;100.00;100357.97;4963758;28;20288;-74
2022/11/08 10:36:24;;;;;;;13.88;4.25;;;10.80;99.90;;;11.11;100.00;100366.06;4950711;28;20283;-73
2022/11/08 10:39:03;;;;;;;7.20;2.17;;;10.90;99.90;;;11.32;100.00;100354.72;4970884;28;20324;-74
2022/11/08 10:41:44;;;;;;;13.35;4.10;;;11.20;99.90;;;11.48;100.00;100343.31;4980238;28;20315;-78
2022/11/08 10:44:14;;;;;;;12.82;3.85;;;11.30;99.90;;;11.83;100.00;100346.13;4942994;28;20666;-74
2022/11/08 10:46:47;;;;;;;12.73;4.25;;;11.60;99.90;;;11.79;100.00;100328.47;4961461;28;20290;-74